sensor_id;sensor_type;location;lat;lon;timestamp;P1;durP1;ratioP1;P2;durP2;ratioP2
51987;SDS011;38003;52.012;4.346;2022-07-21T00:00:55;13.10;;;11.43;;
51987;SDS011;38003;52.012;4.346;2022-07-21T00:03:23;13.45;;;12.15;;
51987;SDS011;38003;52.012;4.346;2022-07-21T00:05:52;14.48;;;13.00;;
51987;SDS011;38003;52.012;4.346;2022-07-21T00:08:20;13.93;;;12.65;;
51987;SDS011;38003;52.012;4.346;2022-07-21T00:10:48;13.90;;;11.85;;
51987;SDS011;38003;52.012;4.346;2022-07-21T00:13:16;12.93;;;11.73;;
51987;SDS011;38003;52.012;4.346;2022-07-21T00:15:44;12.65;;;11.38;;
51987;SDS011;38003;52.012;4.346;2022-07-21T00:18:13;12.90;;;11.70;;
51987;SDS011;38003;52.012;4.346;2022-07-21T00:20:41;13.00;;;11.00;;
51987;SDS011;38003;52.012;4.346;2022-07-21T00:23:11;13.93;;;12.52;;
51987;SDS011;38003;52.012;4.346;2022-07-21T00:25:39;13.30;;;12.02;;
51987;SDS011;38003;52.012;4.346;2022-07-21T00:28:07;12.93;;;11.63;;
51987;SDS011;38003;52.012;4.346;2022-07-21T00:30:34;13.55;;;12.15;;
51987;SDS011;38003;52.012;4.346;2022-07-21T00:33:03;13.90;;;12.50;;
51987;SDS011;38003;52.012;4.346;2022-07-21T00:35:31;14.32;;;12.93;;
51987;SDS011;38003;52.012;4.346;2022-07-21T00:37:59;13.85;;;12.02;;
51987;SDS011;38003;52.012;4.346;2022-07-21T00:40:28;13.88;;;12.57;;
51987;SDS011;38003;52.012;4.346;2022-07-21T00:42:56;14.63;;;12.98;;
51987;SDS011;38003;52.012;4.346;2022-07-21T00:45:24;13.88;;;12.43;;
51987;SDS011;38003;52.012;4.346;2022-07-21T00:47:52;14.90;;;13.30;;
51987;SDS011;38003;52.012;4.346;2022-07-21T00:50:20;14.07;;;12.75;;
51987;SDS011;38003;52.012;4.346;2022-07-21T00:52:49;13.70;;;12.30;;
51987;SDS011;38003;52.012;4.346;2022-07-21T00:55:19;13.95;;;12.63;;
51987;SDS011;38003;52.012;4.346;2022-07-21T00:57:50;14.55;;;13.13;;
51987;SDS011;38003;52.012;4.346;2022-07-21T01:00:20;13.90;;;12.60;;
51987;SDS011;38003;52.012;4.346;2022-07-21T01:02:49;14.38;;;13.02;;
51987;SDS011;38003;52.012;4.346;2022-07-21T01:05:17;14.27;;;12.93;;
51987;SDS011;38003;52.012;4.346;2022-07-21T01:07:47;14.32;;;12.90;;
51987;SDS011;38003;52.012;4.346;2022-07-21T01:10:16;15.30;;;13.35;;
51987;SDS011;38003;52.012;4.346;2022-07-21T01:12:46;15.02;;;13.63;;
51987;SDS011;38003;52.012;4.346;2022-07-21T01:15:17;15.25;;;13.80;;
51987;SDS011;38003;52.012;4.346;2022-07-21T01:17:46;15.38;;;13.88;;
51987;SDS011;38003;52.012;4.346;2022-07-21T01:20:16;14.82;;;13.25;;
51987;SDS011;38003;52.012;4.346;2022-07-21T01:22:48;15.00;;;13.52;;
51987;SDS011;38003;52.012;4.346;2022-07-21T01:25:17;15.18;;;13.68;;
51987;SDS011;38003;52.012;4.346;2022-07-21T01:27:46;14.90;;;13.25;;
51987;SDS011;38003;52.012;4.346;2022-07-21T01:30:15;15.93;;;14.10;;
51987;SDS011;38003;52.012;4.346;2022-07-21T01:32:44;16.20;;;14.60;;
51987;SDS011;38003;52.012;4.346;2022-07-21T01:35:13;17.58;;;14.00;;
51987;SDS011;38003;52.012;4.346;2022-07-21T01:37:43;16.75;;;14.50;;
51987;SDS011;38003;52.012;4.346;2022-07-21T01:40:14;15.48;;;13.98;;
51987;SDS011;38003;52.012;4.346;2022-07-21T01:43:02;16.08;;;14.38;;
51987;SDS011;38003;52.012;4.346;2022-07-21T01:45:37;16.50;;;14.77;;
51987;SDS011;38003;52.012;4.346;2022-07-21T01:48:06;16.67;;;15.02;;
51987;SDS011;38003;52.012;4.346;2022-07-21T01:50:34;16.42;;;14.80;;
51987;SDS011;38003;52.012;4.346;2022-07-21T01:53:02;15.88;;;14.23;;
51987;SDS011;38003;52.012;4.346;2022-07-21T01:55:31;15.75;;;14.18;;
51987;SDS011;38003;52.012;4.346;2022-07-21T01:58:00;17.15;;;15.45;;
51987;SDS011;38003;52.012;4.346;2022-07-21T02:00:28;19.00;;;16.05;;
51987;SDS011;38003;52.012;4.346;2022-07-21T02:02:56;16.33;;;14.73;;
51987;SDS011;38003;52.012;4.346;2022-07-21T02:05:24;17.80;;;15.23;;
51987;SDS011;38003;52.012;4.346;2022-07-21T02:07:51;17.35;;;15.63;;
51987;SDS011;38003;52.012;4.346;2022-07-21T02:10:19;16.90;;;15.20;;
51987;SDS011;38003;52.012;4.346;2022-07-21T02:12:49;17.65;;;15.75;;
51987;SDS011;38003;52.012;4.346;2022-07-21T02:15:17;17.60;;;15.90;;
51987;SDS011;38003;52.012;4.346;2022-07-21T02:17:45;18.35;;;16.23;;
51987;SDS011;38003;52.012;4.346;2022-07-21T02:20:12;18.80;;;16.10;;
51987;SDS011;38003;52.012;4.346;2022-07-21T02:22:41;18.45;;;16.65;;
51987;SDS011;38003;52.012;4.346;2022-07-21T02:25:11;18.48;;;16.50;;
51987;SDS011;38003;52.012;4.346;2022-07-21T02:27:39;18.85;;;16.88;;
51987;SDS011;38003;52.012;4.346;2022-07-21T02:30:09;18.38;;;16.48;;
51987;SDS011;38003;52.012;4.346;2022-07-21T02:32:37;18.48;;;16.67;;
51987;SDS011;38003;52.012;4.346;2022-07-21T02:35:06;18.67;;;16.38;;
51987;SDS011;38003;52.012;4.346;2022-07-21T02:37:34;20.00;;;16.40;;
51987;SDS011;38003;52.012;4.346;2022-07-21T02:40:04;19.15;;;17.23;;
51987;SDS011;38003;52.012;4.346;2022-07-21T02:42:32;19.85;;;16.95;;
51987;SDS011;38003;52.012;4.346;2022-07-21T02:45:00;17.88;;;16.08;;
51987;SDS011;38003;52.012;4.346;2022-07-21T02:47:29;19.25;;;17.20;;
51987;SDS011;38003;52.012;4.346;2022-07-21T02:49:57;18.73;;;16.80;;
51987;SDS011;38003;52.012;4.346;2022-07-21T02:52:25;18.10;;;15.73;;
51987;SDS011;38003;52.012;4.346;2022-07-21T02:54:53;17.90;;;16.00;;
51987;SDS011;38003;52.012;4.346;2022-07-21T02:57:21;20.38;;;17.92;;
51987;SDS011;38003;52.012;4.346;2022-07-21T02:59:49;18.95;;;17.15;;
51987;SDS011;38003;52.012;4.346;2022-07-21T03:02:17;19.73;;;17.60;;
51987;SDS011;38003;52.012;4.346;2022-07-21T03:04:46;19.42;;;17.33;;
51987;SDS011;38003;52.012;4.346;2022-07-21T03:07:14;19.33;;;17.27;;
51987;SDS011;38003;52.012;4.346;2022-07-21T03:09:42;19.35;;;17.45;;
51987;SDS011;38003;52.012;4.346;2022-07-21T03:12:10;23.27;;;20.55;;
51987;SDS011;38003;52.012;4.346;2022-07-21T03:14:38;22.38;;;19.95;;
51987;SDS011;38003;52.012;4.346;2022-07-21T03:17:06;22.83;;;19.92;;
51987;SDS011;38003;52.012;4.346;2022-07-21T03:19:34;21.67;;;18.10;;
51987;SDS011;38003;52.012;4.346;2022-07-21T03:22:03;21.92;;;19.70;;
51987;SDS011;38003;52.012;4.346;2022-07-21T03:24:31;21.30;;;19.10;;
51987;SDS011;38003;52.012;4.346;2022-07-21T03:26:59;20.92;;;18.25;;
51987;SDS011;38003;52.012;4.346;2022-07-21T03:29:33;20.17;;;18.08;;
51987;SDS011;38003;52.012;4.346;2022-07-21T03:32:00;21.65;;;17.65;;
51987;SDS011;38003;52.012;4.346;2022-07-21T03:34:29;19.27;;;17.27;;
51987;SDS011;38003;52.012;4.346;2022-07-21T03:36:56;21.88;;;17.65;;
51987;SDS011;38003;52.012;4.346;2022-07-21T03:39:26;18.65;;;16.55;;
51987;SDS011;38003;52.012;4.346;2022-07-21T03:41:54;21.75;;;16.95;;
51987;SDS011;38003;52.012;4.346;2022-07-21T03:44:21;19.08;;;17.15;;
51987;SDS011;38003;52.012;4.346;2022-07-21T03:46:49;19.85;;;17.20;;
51987;SDS011;38003;52.012;4.346;2022-07-21T03:49:17;18.75;;;16.75;;
51987;SDS011;38003;52.012;4.346;2022-07-21T03:51:45;20.05;;;16.70;;
51987;SDS011;38003;52.012;4.346;2022-07-21T03:54:13;19.33;;;16.40;;
51987;SDS011;38003;52.012;4.346;2022-07-21T03:56:42;20.73;;;17.05;;
51987;SDS011;38003;52.012;4.346;2022-07-21T03:59:10;18.35;;;15.52;;
51987;SDS011;38003;52.012;4.346;2022-07-21T04:01:38;18.80;;;16.75;;
51987;SDS011;38003;52.012;4.346;2022-07-21T04:04:06;20.83;;;18.13;;
51987;SDS011;38003;52.012;4.346;2022-07-21T04:06:34;24.63;;;20.40;;
51987;SDS011;38003;52.012;4.346;2022-07-21T04:09:02;24.27;;;20.45;;
51987;SDS011;38003;52.012;4.346;2022-07-21T04:11:30;23.60;;;19.42;;
51987;SDS011;38003;52.012;4.346;2022-07-21T04:13:59;23.42;;;19.05;;
51987;SDS011;38003;52.012;4.346;2022-07-21T04:16:27;24.73;;;18.52;;
51987;SDS011;38003;52.012;4.346;2022-07-21T04:18:56;30.77;;;18.77;;
51987;SDS011;38003;52.012;4.346;2022-07-21T04:21:23;30.85;;;20.20;;
51987;SDS011;38003;52.012;4.346;2022-07-21T04:23:51;35.42;;;19.30;;
51987;SDS011;38003;52.012;4.346;2022-07-21T04:26:19;33.60;;;19.38;;
51987;SDS011;38003;52.012;4.346;2022-07-21T04:28:47;35.67;;;20.60;;
51987;SDS011;38003;52.012;4.346;2022-07-21T04:31:17;39.58;;;20.77;;
51987;SDS011;38003;52.012;4.346;2022-07-21T04:33:45;30.98;;;19.08;;
51987;SDS011;38003;52.012;4.346;2022-07-21T04:36:13;28.20;;;18.55;;
51987;SDS011;38003;52.012;4.346;2022-07-21T04:38:41;34.88;;;19.45;;
51987;SDS011;38003;52.012;4.346;2022-07-21T04:41:09;30.77;;;19.40;;
51987;SDS011;38003;52.012;4.346;2022-07-21T04:43:37;30.58;;;18.42;;
51987;SDS011;38003;52.012;4.346;2022-07-21T04:46:04;28.75;;;17.98;;
51987;SDS011;38003;52.012;4.346;2022-07-21T04:48:41;30.85;;;18.95;;
51987;SDS011;38003;52.012;4.346;2022-07-21T04:51:10;30.33;;;18.85;;
51987;SDS011;38003;52.012;4.346;2022-07-21T04:53:38;31.40;;;18.92;;
51987;SDS011;38003;52.012;4.346;2022-07-21T04:56:06;30.17;;;19.50;;
51987;SDS011;38003;52.012;4.346;2022-07-21T04:58:34;26.75;;;18.10;;
51987;SDS011;38003;52.012;4.346;2022-07-21T05:01:01;31.90;;;19.23;;
51987;SDS011;38003;52.012;4.346;2022-07-21T05:03:29;29.10;;;17.70;;
51987;SDS011;38003;52.012;4.346;2022-07-21T05:05:59;29.92;;;17.90;;
51987;SDS011;38003;52.012;4.346;2022-07-21T05:08:27;29.65;;;17.40;;
51987;SDS011;38003;52.012;4.346;2022-07-21T05:10:55;24.60;;;17.90;;
51987;SDS011;38003;52.012;4.346;2022-07-21T05:13:23;23.05;;;17.75;;
51987;SDS011;38003;52.012;4.346;2022-07-21T05:15:51;28.05;;;19.67;;
51987;SDS011;38003;52.012;4.346;2022-07-21T05:18:19;26.83;;;18.08;;
51987;SDS011;38003;52.012;4.346;2022-07-21T05:20:47;29.02;;;19.02;;
51987;SDS011;38003;52.012;4.346;2022-07-21T05:23:16;29.23;;;18.42;;
51987;SDS011;38003;52.012;4.346;2022-07-21T05:25:44;26.10;;;18.85;;
51987;SDS011;38003;52.012;4.346;2022-07-21T05:28:12;27.08;;;17.88;;
51987;SDS011;38003;52.012;4.346;2022-07-21T05:30:40;22.83;;;17.98;;
51987;SDS011;38003;52.012;4.346;2022-07-21T05:33:08;24.90;;;17.42;;
51987;SDS011;38003;52.012;4.346;2022-07-21T05:35:36;23.15;;;16.20;;
51987;SDS011;38003;52.012;4.346;2022-07-21T05:38:04;24.45;;;15.65;;
51987;SDS011;38003;52.012;4.346;2022-07-21T05:40:34;22.05;;;15.25;;
51987;SDS011;38003;52.012;4.346;2022-07-21T05:43:02;22.73;;;15.40;;
51987;SDS011;38003;52.012;4.346;2022-07-21T05:45:30;19.58;;;14.55;;
51987;SDS011;38003;52.012;4.346;2022-07-21T05:47:58;18.92;;;13.32;;
51987;SDS011;38003;52.012;4.346;2022-07-21T05:50:25;20.35;;;14.27;;
51987;SDS011;38003;52.012;4.346;2022-07-21T05:52:53;23.73;;;14.77;;
51987;SDS011;38003;52.012;4.346;2022-07-21T05:55:21;18.85;;;13.55;;
51987;SDS011;38003;52.012;4.346;2022-07-21T05:57:51;17.75;;;13.13;;
51987;SDS011;38003;52.012;4.346;2022-07-21T06:00:19;16.95;;;12.30;;
51987;SDS011;38003;52.012;4.346;2022-07-21T06:02:47;18.40;;;13.65;;
51987;SDS011;38003;52.012;4.346;2022-07-21T06:05:16;18.75;;;12.65;;
51987;SDS011;38003;52.012;4.346;2022-07-21T06:07:44;16.48;;;12.13;;
51987;SDS011;38003;52.012;4.346;2022-07-21T06:10:12;20.25;;;12.63;;
51987;SDS011;38003;52.012;4.346;2022-07-21T06:12:43;18.40;;;13.45;;
51987;SDS011;38003;52.012;4.346;2022-07-21T06:15:12;15.25;;;11.60;;
51987;SDS011;38003;52.012;4.346;2022-07-21T06:17:41;17.40;;;12.70;;
51987;SDS011;38003;52.012;4.346;2022-07-21T06:20:10;14.98;;;10.10;;
51987;SDS011;38003;52.012;4.346;2022-07-21T06:22:39;13.93;;;10.43;;
51987;SDS011;38003;52.012;4.346;2022-07-21T06:25:07;14.52;;;8.40;;
51987;SDS011;38003;52.012;4.346;2022-07-21T06:27:36;12.10;;;8.00;;
51987;SDS011;38003;52.012;4.346;2022-07-21T06:30:04;10.50;;;6.80;;
51987;SDS011;38003;52.012;4.346;2022-07-21T06:32:35;7.45;;;5.97;;
51987;SDS011;38003;52.012;4.346;2022-07-21T06:35:03;7.05;;;6.05;;
51987;SDS011;38003;52.012;4.346;2022-07-21T06:37:31;6.40;;;5.15;;
51987;SDS011;38003;52.012;4.346;2022-07-21T06:39:59;8.02;;;6.13;;
51987;SDS011;38003;52.012;4.346;2022-07-21T06:42:27;9.38;;;6.15;;
51987;SDS011;38003;52.012;4.346;2022-07-21T06:44:55;8.77;;;6.57;;
51987;SDS011;38003;52.012;4.346;2022-07-21T06:47:23;10.13;;;7.32;;
51987;SDS011;38003;52.012;4.346;2022-07-21T06:49:52;9.13;;;7.15;;
51987;SDS011;38003;52.012;4.346;2022-07-21T06:52:25;11.23;;;7.30;;
51987;SDS011;38003;52.012;4.346;2022-07-21T06:54:53;10.38;;;7.32;;
51987;SDS011;38003;52.012;4.346;2022-07-21T06:57:22;9.93;;;7.18;;
51987;SDS011;38003;52.012;4.346;2022-07-21T06:59:50;8.75;;;7.45;;
51987;SDS011;38003;52.012;4.346;2022-07-21T07:02:18;9.40;;;7.53;;
51987;SDS011;38003;52.012;4.346;2022-07-21T07:04:46;8.85;;;7.43;;
51987;SDS011;38003;52.012;4.346;2022-07-21T07:07:16;8.75;;;7.03;;
51987;SDS011;38003;52.012;4.346;2022-07-21T07:09:44;9.73;;;7.65;;
51987;SDS011;38003;52.012;4.346;2022-07-21T07:12:12;12.20;;;8.30;;
51987;SDS011;38003;52.012;4.346;2022-07-21T07:15:00;11.80;;;8.70;;
51987;SDS011;38003;52.012;4.346;2022-07-21T07:17:28;12.20;;;9.93;;
51987;SDS011;38003;52.012;4.346;2022-07-21T07:19:56;14.05;;;9.88;;
51987;SDS011;38003;52.012;4.346;2022-07-21T07:22:25;14.20;;;11.52;;
51987;SDS011;38003;52.012;4.346;2022-07-21T07:24:53;13.85;;;11.50;;
51987;SDS011;38003;52.012;4.346;2022-07-21T07:27:21;14.02;;;11.43;;
51987;SDS011;38003;52.012;4.346;2022-07-21T07:29:53;17.02;;;12.68;;
51987;SDS011;38003;52.012;4.346;2022-07-21T07:32:21;15.98;;;12.68;;
51987;SDS011;38003;52.012;4.346;2022-07-21T07:34:49;21.73;;;12.93;;
51987;SDS011;38003;52.012;4.346;2022-07-21T07:37:16;18.42;;;12.82;;
51987;SDS011;38003;52.012;4.346;2022-07-21T07:39:46;15.52;;;12.30;;
51987;SDS011;38003;52.012;4.346;2022-07-21T07:42:14;19.70;;;12.43;;
51987;SDS011;38003;52.012;4.346;2022-07-21T07:44:42;16.50;;;12.70;;
51987;SDS011;38003;52.012;4.346;2022-07-21T07:47:11;15.95;;;11.40;;
51987;SDS011;38003;52.012;4.346;2022-07-21T07:49:39;19.90;;;12.18;;
51987;SDS011;38003;52.012;4.346;2022-07-21T07:52:07;16.40;;;13.00;;
51987;SDS011;38003;52.012;4.346;2022-07-21T07:54:36;18.52;;;11.48;;
51987;SDS011;38003;52.012;4.346;2022-07-21T07:57:05;20.38;;;12.15;;
51987;SDS011;38003;52.012;4.346;2022-07-21T07:59:33;18.23;;;11.80;;
51987;SDS011;38003;52.012;4.346;2022-07-21T08:02:01;20.33;;;13.23;;
51987;SDS011;38003;52.012;4.346;2022-07-21T08:04:29;24.55;;;13.05;;
51987;SDS011;38003;52.012;4.346;2022-07-21T08:06:58;18.08;;;11.95;;
51987;SDS011;38003;52.012;4.346;2022-07-21T08:09:32;20.67;;;12.73;;
51987;SDS011;38003;52.012;4.346;2022-07-21T08:12:00;18.85;;;11.82;;
51987;SDS011;38003;52.012;4.346;2022-07-21T08:14:29;19.67;;;10.80;;
51987;SDS011;38003;52.012;4.346;2022-07-21T08:16:57;19.85;;;11.32;;
51987;SDS011;38003;52.012;4.346;2022-07-21T08:19:26;17.25;;;10.57;;
51987;SDS011;38003;52.012;4.346;2022-07-21T08:21:54;19.23;;;9.93;;
51987;SDS011;38003;52.012;4.346;2022-07-21T08:24:40;11.23;;;8.90;;
51987;SDS011;38003;52.012;4.346;2022-07-21T08:27:08;11.40;;;8.43;;
51987;SDS011;38003;52.012;4.346;2022-07-21T08:29:37;14.88;;;8.73;;
51987;SDS011;38003;52.012;4.346;2022-07-21T08:32:05;14.20;;;9.20;;
51987;SDS011;38003;52.012;4.346;2022-07-21T08:34:33;14.82;;;9.05;;
51987;SDS011;38003;52.012;4.346;2022-07-21T08:37:01;10.85;;;8.55;;
51987;SDS011;38003;52.012;4.346;2022-07-21T08:39:30;11.23;;;8.32;;
51987;SDS011;38003;52.012;4.346;2022-07-21T08:41:58;11.85;;;8.00;;
51987;SDS011;38003;52.012;4.346;2022-07-21T08:44:27;11.82;;;8.27;;
51987;SDS011;38003;52.012;4.346;2022-07-21T08:46:56;10.05;;;7.03;;
51987;SDS011;38003;52.012;4.346;2022-07-21T08:49:25;9.73;;;6.60;;
51987;SDS011;38003;52.012;4.346;2022-07-21T08:51:55;8.50;;;6.20;;
51987;SDS011;38003;52.012;4.346;2022-07-21T08:54:23;6.15;;;4.50;;
51987;SDS011;38003;52.012;4.346;2022-07-21T08:56:51;5.88;;;4.68;;
51987;SDS011;38003;52.012;4.346;2022-07-21T08:59:20;4.20;;;3.38;;
51987;SDS011;38003;52.012;4.346;2022-07-21T09:01:58;4.43;;;3.50;;
51987;SDS011;38003;52.012;4.346;2022-07-21T09:04:26;3.95;;;3.55;;
51987;SDS011;38003;52.012;4.346;2022-07-21T09:07:04;5.13;;;3.58;;
51987;SDS011;38003;52.012;4.346;2022-07-21T09:09:34;5.20;;;3.05;;
51987;SDS011;38003;52.012;4.346;2022-07-21T09:12:03;5.75;;;3.60;;
51987;SDS011;38003;52.012;4.346;2022-07-21T09:14:34;4.47;;;3.88;;
51987;SDS011;38003;52.012;4.346;2022-07-21T09:17:04;6.05;;;4.00;;
51987;SDS011;38003;52.012;4.346;2022-07-21T09:19:35;4.03;;;3.63;;
51987;SDS011;38003;52.012;4.346;2022-07-21T09:22:06;5.35;;;3.88;;
51987;SDS011;38003;52.012;4.346;2022-07-21T09:24:38;3.47;;;3.17;;
51987;SDS011;38003;52.012;4.346;2022-07-21T09:27:08;3.38;;;3.00;;
51987;SDS011;38003;52.012;4.346;2022-07-21T09:29:38;3.38;;;2.80;;
51987;SDS011;38003;52.012;4.346;2022-07-21T09:32:17;4.32;;;3.25;;
51987;SDS011;38003;52.012;4.346;2022-07-21T09:34:47;4.35;;;2.80;;
51987;SDS011;38003;52.012;4.346;2022-07-21T09:37:16;4.05;;;2.88;;
51987;SDS011;38003;52.012;4.346;2022-07-21T09:39:46;3.05;;;2.45;;
51987;SDS011;38003;52.012;4.346;2022-07-21T09:42:18;2.90;;;2.20;;
51987;SDS011;38003;52.012;4.346;2022-07-21T09:44:49;2.50;;;2.30;;
51987;SDS011;38003;52.012;4.346;2022-07-21T09:47:21;2.97;;;2.47;;
51987;SDS011;38003;52.012;4.346;2022-07-21T09:49:52;3.97;;;2.47;;
51987;SDS011;38003;52.012;4.346;2022-07-21T09:52:41;2.38;;;2.10;;
51987;SDS011;38003;52.012;4.346;2022-07-21T09:55:11;4.47;;;2.53;;
51987;SDS011;38003;52.012;4.346;2022-07-21T09:57:40;3.33;;;2.30;;
51987;SDS011;38003;52.012;4.346;2022-07-21T10:00:10;5.22;;;3.15;;
51987;SDS011;38003;52.012;4.346;2022-07-21T10:02:46;6.57;;;2.72;;
51987;SDS011;38003;52.012;4.346;2022-07-21T10:05:16;4.20;;;2.60;;
51987;SDS011;38003;52.012;4.346;2022-07-21T10:07:46;3.80;;;2.47;;
51987;SDS011;38003;52.012;4.346;2022-07-21T10:10:15;4.68;;;2.90;;
51987;SDS011;38003;52.012;4.346;2022-07-21T10:12:46;7.22;;;3.15;;
51987;SDS011;38003;52.012;4.346;2022-07-21T10:15:16;5.00;;;2.90;;
51987;SDS011;38003;52.012;4.346;2022-07-21T10:17:44;5.10;;;2.53;;
51987;SDS011;38003;52.012;4.346;2022-07-21T10:20:18;6.82;;;2.63;;
51987;SDS011;38003;52.012;4.346;2022-07-21T10:22:56;4.75;;;3.00;;
51987;SDS011;38003;52.012;4.346;2022-07-21T10:25:29;4.15;;;2.40;;
51987;SDS011;38003;52.012;4.346;2022-07-21T10:28:13;3.08;;;2.40;;
51987;SDS011;38003;52.012;4.346;2022-07-21T10:30:44;4.22;;;2.05;;
51987;SDS011;38003;52.012;4.346;2022-07-21T10:33:15;1.95;;;1.60;;
51987;SDS011;38003;52.012;4.346;2022-07-21T10:35:45;2.60;;;1.73;;
51987;SDS011;38003;52.012;4.346;2022-07-21T10:38:27;3.15;;;1.58;;
51987;SDS011;38003;52.012;4.346;2022-07-21T10:40:56;3.17;;;1.60;;
51987;SDS011;38003;52.012;4.346;2022-07-21T10:43:40;4.78;;;1.75;;
51987;SDS011;38003;52.012;4.346;2022-07-21T10:49:08;4.30;;;1.65;;
51987;SDS011;38003;52.012;4.346;2022-07-21T10:51:37;5.00;;;1.50;;
51987;SDS011;38003;52.012;4.346;2022-07-21T10:54:15;3.38;;;1.20;;
51987;SDS011;38003;52.012;4.346;2022-07-21T10:56:45;1.95;;;1.20;;
51987;SDS011;38003;52.012;4.346;2022-07-21T10:59:13;4.10;;;1.40;;
51987;SDS011;38003;52.012;4.346;2022-07-21T11:01:41;2.25;;;1.30;;
51987;SDS011;38003;52.012;4.346;2022-07-21T11:04:11;2.00;;;1.27;;
51987;SDS011;38003;52.012;4.346;2022-07-21T11:06:43;2.83;;;1.60;;
51987;SDS011;38003;52.012;4.346;2022-07-21T11:09:12;4.43;;;1.30;;
51987;SDS011;38003;52.012;4.346;2022-07-21T11:11:55;3.28;;;1.45;;
51987;SDS011;38003;52.012;4.346;2022-07-21T11:14:35;2.97;;;1.48;;
51987;SDS011;38003;52.012;4.346;2022-07-21T11:17:04;3.90;;;1.95;;
51987;SDS011;38003;52.012;4.346;2022-07-21T11:19:39;5.32;;;2.35;;
51987;SDS011;38003;52.012;4.346;2022-07-21T11:22:15;4.78;;;2.35;;
51987;SDS011;38003;52.012;4.346;2022-07-21T11:24:45;5.63;;;2.20;;
51987;SDS011;38003;52.012;4.346;2022-07-21T11:27:15;5.23;;;2.17;;
51987;SDS011;38003;52.012;4.346;2022-07-21T11:29:49;3.78;;;1.75;;
51987;SDS011;38003;52.012;4.346;2022-07-21T11:32:18;3.10;;;1.40;;
51987;SDS011;38003;52.012;4.346;2022-07-21T11:34:48;4.88;;;1.85;;
51987;SDS011;38003;52.012;4.346;2022-07-21T11:37:18;5.40;;;1.90;;
51987;SDS011;38003;52.012;4.346;2022-07-21T11:40:03;5.55;;;1.70;;
51987;SDS011;38003;52.012;4.346;2022-07-21T11:42:34;4.13;;;1.70;;
51987;SDS011;38003;52.012;4.346;2022-07-21T11:45:03;3.40;;;1.45;;
51987;SDS011;38003;52.012;4.346;2022-07-21T11:47:32;7.72;;;1.63;;
51987;SDS011;38003;52.012;4.346;2022-07-21T11:50:03;4.10;;;1.30;;
51987;SDS011;38003;52.012;4.346;2022-07-21T11:52:34;3.30;;;1.13;;
51987;SDS011;38003;52.012;4.346;2022-07-21T11:55:04;2.30;;;1.20;;
51987;SDS011;38003;52.012;4.346;2022-07-21T11:57:34;3.67;;;1.33;;
51987;SDS011;38003;52.012;4.346;2022-07-21T12:00:03;3.15;;;1.73;;
51987;SDS011;38003;52.012;4.346;2022-07-21T12:02:34;3.20;;;1.20;;
51987;SDS011;38003;52.012;4.346;2022-07-21T12:05:06;3.63;;;1.40;;
51987;SDS011;38003;52.012;4.346;2022-07-21T12:07:36;4.70;;;1.50;;
51987;SDS011;38003;52.012;4.346;2022-07-21T12:10:06;5.03;;;1.30;;
51987;SDS011;38003;52.012;4.346;2022-07-21T12:12:37;3.42;;;1.23;;
51987;SDS011;38003;52.012;4.346;2022-07-21T12:15:10;4.97;;;1.10;;
51987;SDS011;38003;52.012;4.346;2022-07-21T12:17:41;2.95;;;1.23;;
51987;SDS011;38003;52.012;4.346;2022-07-21T12:20:12;4.10;;;1.42;;
51987;SDS011;38003;52.012;4.346;2022-07-21T12:22:43;4.47;;;1.50;;
51987;SDS011;38003;52.012;4.346;2022-07-21T12:25:14;5.53;;;1.45;;
51987;SDS011;38003;52.012;4.346;2022-07-21T12:27:44;5.13;;;1.52;;
51987;SDS011;38003;52.012;4.346;2022-07-21T12:30:30;4.20;;;1.95;;
51987;SDS011;38003;52.012;4.346;2022-07-21T12:33:03;5.15;;;1.83;;
51987;SDS011;38003;52.012;4.346;2022-07-21T12:35:34;8.05;;;1.80;;
51987;SDS011;38003;52.012;4.346;2022-07-21T12:38:07;6.22;;;1.80;;
51987;SDS011;38003;52.012;4.346;2022-07-21T12:40:37;4.70;;;1.83;;
51987;SDS011;38003;52.012;4.346;2022-07-21T12:43:27;8.02;;;2.30;;
51987;SDS011;38003;52.012;4.346;2022-07-21T12:45:57;6.97;;;1.80;;
51987;SDS011;38003;52.012;4.346;2022-07-21T12:48:26;9.88;;;2.67;;
51987;SDS011;38003;52.012;4.346;2022-07-21T12:51:11;11.82;;;2.72;;
51987;SDS011;38003;52.012;4.346;2022-07-21T12:53:42;8.10;;;2.00;;
51987;SDS011;38003;52.012;4.346;2022-07-21T12:56:13;6.17;;;2.13;;
51987;SDS011;38003;52.012;4.346;2022-07-21T12:58:42;8.27;;;2.33;;
51987;SDS011;38003;52.012;4.346;2022-07-21T13:04:04;6.35;;;2.15;;
51987;SDS011;38003;52.012;4.346;2022-07-21T13:06:33;9.55;;;3.25;;
51987;SDS011;38003;52.012;4.346;2022-07-21T13:09:02;7.90;;;2.28;;
51987;SDS011;38003;52.012;4.346;2022-07-21T13:11:30;8.82;;;2.00;;
51987;SDS011;38003;52.012;4.346;2022-07-21T13:13:58;9.20;;;2.42;;
51987;SDS011;38003;52.012;4.346;2022-07-21T13:16:29;4.72;;;2.30;;
51987;SDS011;38003;52.012;4.346;2022-07-21T13:18:57;9.67;;;2.67;;
51987;SDS011;38003;52.012;4.346;2022-07-21T13:21:25;8.00;;;2.17;;
51987;SDS011;38003;52.012;4.346;2022-07-21T13:23:54;11.27;;;2.80;;
51987;SDS011;38003;52.012;4.346;2022-07-21T13:26:22;6.22;;;2.22;;
51987;SDS011;38003;52.012;4.346;2022-07-21T13:28:50;10.98;;;2.35;;
51987;SDS011;38003;52.012;4.346;2022-07-21T13:31:19;8.57;;;2.67;;
51987;SDS011;38003;52.012;4.346;2022-07-21T13:33:47;11.70;;;2.93;;
51987;SDS011;38003;52.012;4.346;2022-07-21T13:36:15;7.43;;;2.30;;
51987;SDS011;38003;52.012;4.346;2022-07-21T13:38:43;11.95;;;2.40;;
51987;SDS011;38003;52.012;4.346;2022-07-21T13:41:12;11.00;;;2.50;;
51987;SDS011;38003;52.012;4.346;2022-07-21T13:44:03;8.70;;;2.30;;
51987;SDS011;38003;52.012;4.346;2022-07-21T13:46:31;9.77;;;2.63;;
51987;SDS011;38003;52.012;4.346;2022-07-21T13:48:59;10.20;;;2.67;;
51987;SDS011;38003;52.012;4.346;2022-07-21T13:51:27;7.37;;;2.40;;
51987;SDS011;38003;52.012;4.346;2022-07-21T13:53:55;10.63;;;2.80;;
51987;SDS011;38003;52.012;4.346;2022-07-21T13:56:25;10.07;;;2.65;;
51987;SDS011;38003;52.012;4.346;2022-07-21T13:58:54;8.85;;;2.33;;
51987;SDS011;38003;52.012;4.346;2022-07-21T14:01:22;9.05;;;2.50;;
51987;SDS011;38003;52.012;4.346;2022-07-21T14:03:50;11.50;;;2.67;;
51987;SDS011;38003;52.012;4.346;2022-07-21T14:06:19;8.30;;;2.08;;
51987;SDS011;38003;52.012;4.346;2022-07-21T14:08:47;14.75;;;3.03;;
51987;SDS011;38003;52.012;4.346;2022-07-21T14:11:15;10.55;;;2.50;;
51987;SDS011;38003;52.012;4.346;2022-07-21T14:13:45;9.27;;;2.53;;
51987;SDS011;38003;52.012;4.346;2022-07-21T14:16:12;9.93;;;2.07;;
51987;SDS011;38003;52.012;4.346;2022-07-21T14:18:41;9.80;;;2.20;;
51987;SDS011;38003;52.012;4.346;2022-07-21T14:21:09;12.63;;;3.20;;
51987;SDS011;38003;52.012;4.346;2022-07-21T14:23:37;7.55;;;2.70;;
51987;SDS011;38003;52.012;4.346;2022-07-21T14:26:05;12.90;;;3.05;;
51987;SDS011;38003;52.012;4.346;2022-07-21T14:28:33;12.02;;;2.63;;
51987;SDS011;38003;52.012;4.346;2022-07-21T14:31:03;8.57;;;2.40;;
51987;SDS011;38003;52.012;4.346;2022-07-21T14:33:31;11.18;;;2.80;;
51987;SDS011;38003;52.012;4.346;2022-07-21T14:35:59;9.82;;;2.63;;
51987;SDS011;38003;52.012;4.346;2022-07-21T14:38:27;8.05;;;2.47;;
51987;SDS011;38003;52.012;4.346;2022-07-21T14:40:55;11.30;;;2.75;;
51987;SDS011;38003;52.012;4.346;2022-07-21T14:43:23;15.45;;;3.25;;
51987;SDS011;38003;52.012;4.346;2022-07-21T14:45:51;14.02;;;2.65;;
51987;SDS011;38003;52.012;4.346;2022-07-21T14:48:20;15.30;;;3.50;;
51987;SDS011;38003;52.012;4.346;2022-07-21T14:50:49;12.80;;;2.42;;
51987;SDS011;38003;52.012;4.346;2022-07-21T14:53:17;12.15;;;2.50;;